Souda — SVBH5 — position and weather

sailwx.info

Track history (hours):
 
Tides and Currents Weather Stations Pressure Air Temp Water Temp Dewpoint Dewpoint Depression Visibility Wind Speed Wind Dir Waves Ship Positions

Souda

Last reported at 2014-Jul-27 17:32 UTC. Time now 2014-Jul-28 08:27 UTC.
Position N 37°54' E 023°04'.

Length 88 m; draft 4.6 m.

Type: Tanker. MMSI: 241109000.

Date/timePositionNaut miles runAvg speedWind from/ knotsBaromVisibWave heightAir tempDewpointWater temp
2014-Jul-27 17:32N 37°54' E 023°04'12 0.7
2014-Jul-26 23:33N 37°52' E 023°19'9 9.1
2014-Jul-26 22:34N 37°50' E 023°30'8 8.3
2014-Jul-26 21:33N 37°48' E 023°40'9 9.2
2014-Jul-26 20:32N 37°40' E 023°46'67 9.4
2014-Jul-26 13:26N 36°34' E 024°01'9 8.8
2014-Jul-26 12:22N 36°25' E 024°03'7 8.8
2014-Jul-26 11:33N 36°18' E 024°05'11 8.7
2014-Jul-26 10:15N 36°07' E 024°07'9 8.9
2014-Jul-26 09:13N 35°58' E 024°09'54 1.2
2014-Jul-24 14:13N 36°51' E 023°58'6 8.6
2014-Jul-24 13:33N 36°56' E 023°56'45 8.3
2014-Jul-24 08:09N 37°39' E 023°43'6 8.8
2014-Jul-24 07:26N 37°45' E 023°39'7 8.0
2014-Jul-24 06:33N 37°50' E 023°32'9 8.6
2014-Jul-24 05:33N 37°51' E 023°22'10 0.4
2014-Jul-23 02:33N 37°50' E 023°34'8 7.9
2014-Jul-23 01:33N 37°45' E 023°42'31 9.0
2014-Jul-22 22:09N 37°15' E 023°52'5 9.3
2014-Jul-22 21:33N 37°09' E 023°53'10 9.3
2014-Jul-22 20:29N 36°60' E 023°55'9 9.1
2014-Jul-22 19:33N 36°51' E 023°58'9 9.0
2014-Jul-22 18:32N 36°42' E 023°59'9 8.8
2014-Jul-22 17:33N 36°34' E 024°01'9 8.7
2014-Jul-22 16:32N 36°25' E 024°03'9 9.1
2014-Jul-22 15:33N 36°16' E 024°05'10 9.3
2014-Jul-22 14:31N 36°07' E 024°07'9 9.2
2014-Jul-22 13:33N 35°58' E 024°09'  
Track history (hours):
 
Tides and Currents Weather Stations Pressure Air Temp Water Temp Dewpoint Dewpoint Depression Visibility Wind Speed Wind Dir Waves Ship Positions

Souda

Last reported at 2014-Jul-27 17:32 UTC. Time now 2014-Jul-28 08:27 UTC.
Position N 37°54' E 023°04'.

Length 88 m; draft 4.6 m.

Type: Tanker. MMSI: 241109000.

Date/timePositionNaut miles runAvg speedWind from/ knotsBaromVisibWave heightAir tempDewpointWater temp
2014-Jul-27 17:32N 37°54' E 023°04'12 0.7
2014-Jul-26 23:33N 37°52' E 023°19'9 9.1
2014-Jul-26 22:34N 37°50' E 023°30'8 8.3
2014-Jul-26 21:33N 37°48' E 023°40'9 9.2
2014-Jul-26 20:32N 37°40' E 023°46'67 9.4
2014-Jul-26 13:26N 36°34' E 024°01'9 8.8
2014-Jul-26 12:22N 36°25' E 024°03'7 8.8
2014-Jul-26 11:33N 36°18' E 024°05'11 8.7
2014-Jul-26 10:15N 36°07' E 024°07'9 8.9
2014-Jul-26 09:13N 35°58' E 024°09'54 1.2
2014-Jul-24 14:13N 36°51' E 023°58'6 8.6
2014-Jul-24 13:33N 36°56' E 023°56'45 8.3
2014-Jul-24 08:09N 37°39' E 023°43'6 8.8
2014-Jul-24 07:26N 37°45' E 023°39'7 8.0
2014-Jul-24 06:33N 37°50' E 023°32'9 8.6
2014-Jul-24 05:33N 37°51' E 023°22'10 0.4
2014-Jul-23 02:33N 37°50' E 023°34'8 7.9
2014-Jul-23 01:33N 37°45' E 023°42'31 9.0
2014-Jul-22 22:09N 37°15' E 023°52'5 9.3
2014-Jul-22 21:33N 37°09' E 023°53'10 9.3
2014-Jul-22 20:29N 36°60' E 023°55'9 9.1
2014-Jul-22 19:33N 36°51' E 023°58'9 9.0
2014-Jul-22 18:32N 36°42' E 023°59'9 8.8
2014-Jul-22 17:33N 36°34' E 024°01'9 8.7
2014-Jul-22 16:32N 36°25' E 024°03'9 9.1
2014-Jul-22 15:33N 36°16' E 024°05'10 9.3
2014-Jul-22 14:31N 36°07' E 024°07'9 9.2
2014-Jul-22 13:33N 35°58' E 024°09'  

Dump ship's entire track history